createdAt,value
2022-10-08T03:52:59.128Z,15.03
2022-10-08T03:55:28.045Z,11.17
2022-10-08T03:57:56.458Z,11.87
2022-10-08T04:00:24.824Z,12.90
2022-10-08T04:02:53.279Z,16.67
2022-10-08T04:05:21.590Z,9.10
2022-10-08T04:07:49.874Z,13.60
2022-10-08T04:10:19.690Z,10.80
2022-10-08T04:12:49.035Z,10.47
2022-10-08T04:15:17.685Z,10.27
2022-10-08T04:17:46.142Z,11.27
2022-10-08T04:20:14.833Z,12.40
2022-10-08T04:22:43.859Z,11.93
2022-10-08T04:25:12.649Z,9.23
2022-10-08T04:27:42.491Z,13.37
2022-10-08T04:30:11.860Z,8.83
2022-10-08T04:33:39.381Z,8.27
2022-10-08T04:36:18.354Z,10.00
2022-10-08T04:38:47.452Z,11.43
2022-10-08T04:41:18.209Z,12.10
2022-10-08T04:43:51.632Z,10.57
2022-10-08T04:46:31.126Z,8.27
2022-10-08T04:49:10.455Z,8.77
2022-10-08T04:51:57.204Z,10.80
2022-10-08T04:54:31.417Z,9.50
2022-10-08T04:57:07.003Z,10.30
2022-10-08T05:00:06.139Z,14.33
2022-10-08T05:02:36.671Z,9.80
2022-10-08T05:05:09.984Z,10.47
2022-10-08T05:07:47.285Z,8.50
2022-10-08T05:10:17.665Z,8.47
2022-10-08T05:12:47.832Z,8.77
2022-10-08T05:15:41.083Z,8.03
2022-10-08T05:18:24.988Z,10.93
2022-10-08T05:20:55.709Z,7.53
2022-10-08T05:23:38.769Z,10.80
2022-10-08T05:26:41.394Z,9.50
2022-10-08T05:29:16.918Z,9.93
2022-10-08T05:31:51.330Z,13.47
2022-10-08T05:34:21.160Z,13.80
2022-10-08T05:36:56.662Z,14.67
2022-10-08T05:39:31.473Z,9.43
2022-10-08T05:42:03.590Z,10.27
2022-10-08T05:44:45.708Z,11.80
2022-10-08T05:47:20.793Z,12.53
2022-10-08T05:49:55.454Z,10.43
2022-10-08T05:52:33.630Z,10.07
2022-10-08T05:55:09.225Z,13.77
2022-10-08T05:57:43.985Z,14.10
2022-10-08T06:00:17.117Z,15.57
2022-10-08T06:02:56.019Z,9.70
2022-10-08T06:05:35.271Z,8.63
2022-10-08T06:08:21.742Z,9.67
2022-10-08T06:11:04.898Z,8.77
2022-10-08T06:13:43.366Z,12.37
2022-10-08T06:16:29.565Z,15.67
2022-10-08T06:19:11.190Z,9.90
2022-10-08T06:21:40.403Z,9.40
2022-10-08T06:24:30.048Z,9.50
2022-10-08T06:26:59.863Z,9.17
2022-10-08T06:29:28.557Z,7.77
2022-10-08T06:32:07.057Z,9.10
2022-10-08T06:34:45.665Z,10.10
2022-10-08T06:37:31.949Z,8.60
2022-10-08T06:40:05.427Z,7.37
2022-10-08T06:42:41.807Z,12.83
2022-10-08T06:45:21.046Z,12.60
2022-10-08T06:47:53.750Z,8.77
2022-10-08T06:53:00.142Z,13.00
2022-10-08T06:55:28.589Z,9.50
2022-10-08T06:57:57.346Z,11.27
2022-10-08T07:00:25.993Z,7.53
2022-10-08T07:02:54.597Z,8.07
2022-10-08T07:05:23.029Z,6.83
2022-10-08T07:07:51.463Z,6.67
2022-10-08T07:10:21.183Z,7.47
2022-10-08T07:12:50.174Z,9.03
2022-10-08T07:15:18.646Z,9.30
2022-10-08T07:17:47.157Z,8.27
2022-10-08T07:20:15.577Z,6.97
2022-10-08T07:22:43.929Z,6.70
2022-10-08T07:25:12.328Z,8.13
2022-10-08T07:27:44.942Z,8.50
2022-10-08T07:30:13.730Z,9.77
2022-10-08T07:32:41.948Z,8.50
2022-10-08T07:35:11.144Z,8.20
2022-10-08T07:37:43.881Z,9.00
2022-10-08T07:40:12.443Z,10.33
2022-10-08T07:42:42.158Z,10.50
2022-10-08T07:45:11.329Z,12.00
2022-10-08T07:47:39.614Z,6.87
2022-10-08T07:50:08.507Z,7.93
2022-10-08T07:52:36.766Z,6.57
2022-10-08T07:55:05.437Z,8.67
2022-10-08T07:57:33.687Z,11.00
2022-10-08T08:00:04.809Z,7.13
2022-10-08T08:02:33.233Z,10.57
2022-10-08T08:05:01.657Z,6.43
2022-10-08T08:07:30.216Z,25.13
2022-10-08T08:09:58.745Z,21.47
2022-10-08T08:12:27.109Z,12.20
2022-10-08T08:14:55.789Z,47.20
2022-10-08T08:17:25.519Z,26.63
2022-10-08T08:19:53.851Z,14.77
2022-10-08T08:22:22.226Z,11.73
2022-10-08T08:24:50.512Z,11.33
2022-10-08T08:27:19.146Z,8.83
2022-10-08T08:29:47.530Z,5.50
2022-10-08T08:32:16.299Z,6.37
2022-10-08T08:34:47.094Z,7.77
2022-10-08T08:37:15.685Z,7.57
2022-10-08T08:39:44.015Z,9.30
2022-10-08T08:42:26.752Z,7.27
2022-10-08T08:45:00.448Z,4.77
2022-10-08T08:47:35.303Z,7.50
2022-10-08T08:50:09.982Z,7.47
2022-10-08T08:52:43.486Z,12.00
2022-10-08T08:55:15.974Z,10.10
2022-10-08T08:57:57.257Z,8.23
2022-10-08T09:00:36.165Z,5.73
2022-10-08T09:03:07.836Z,9.17
2022-10-08T09:05:42.658Z,9.03
2022-10-08T09:08:17.376Z,6.30
2022-10-08T09:10:52.680Z,12.47
2022-10-08T09:13:25.821Z,8.00
2022-10-08T09:15:56.067Z,12.40
2022-10-08T09:18:24.861Z,6.13
2022-10-08T09:20:54.633Z,9.27
2022-10-08T09:23:25.225Z,12.67
2022-10-08T09:25:58.547Z,8.90
2022-10-08T09:28:41.709Z,6.27
2022-10-08T09:31:26.274Z,8.87
2022-10-08T09:34:01.786Z,8.20
2022-10-08T09:36:38.551Z,6.23
2022-10-08T09:39:16.164Z,6.13
2022-10-08T09:41:47.109Z,10.73
2022-10-08T09:44:21.557Z,9.03
2022-10-08T09:46:50.841Z,7.63
2022-10-08T09:49:31.453Z,5.50
2022-10-08T09:52:06.385Z,5.90
2022-10-08T09:54:38.331Z,5.40
2022-10-08T09:57:08.219Z,9.07
2022-10-08T09:59:49.141Z,8.00
2022-10-08T10:02:32.851Z,11.90
2022-10-08T10:05:02.679Z,10.87
2022-10-08T10:07:44.229Z,4.43
2022-10-08T10:10:20.294Z,6.93
2022-10-08T10:12:51.961Z,6.97
2022-10-08T10:15:25.384Z,6.60
2022-10-08T10:17:57.028Z,6.67
2022-10-08T10:20:32.922Z,5.00
2022-10-08T10:23:06.617Z,8.40
2022-10-08T10:25:40.280Z,12.13
2022-10-08T10:28:13.974Z,4.83
2022-10-08T10:30:52.361Z,6.27
2022-10-08T10:33:24.912Z,8.57
2022-10-08T10:35:57.322Z,7.33
2022-10-08T10:38:29.500Z,10.83
2022-10-08T10:41:09.661Z,5.53
2022-10-08T10:43:50.754Z,5.40
2022-10-08T10:46:32.191Z,7.87
2022-10-08T10:49:01.669Z,6.77
2022-10-08T10:51:54.697Z,6.50
2022-10-08T10:54:41.955Z,9.27
2022-10-08T10:57:24.510Z,5.70
2022-10-08T11:00:04.193Z,8.70
2022-10-08T11:02:40.219Z,9.53
2022-10-08T11:05:17.701Z,5.87
2022-10-08T11:08:00.619Z,10.60
2022-10-08T11:10:42.720Z,6.23
2022-10-08T11:13:25.184Z,6.27
2022-10-08T11:16:02.616Z,6.93
2022-10-08T11:18:39.051Z,6.30
2022-10-08T11:21:18.721Z,10.03
2022-10-08T11:24:03.838Z,8.20
2022-10-08T11:26:40.656Z,7.13
2022-10-08T11:29:19.727Z,11.70
2022-10-08T11:31:50.586Z,11.30
2022-10-08T11:34:27.164Z,10.30
2022-10-08T11:37:07.837Z,10.00
2022-10-08T11:39:50.965Z,8.97
2022-10-08T11:42:31.585Z,10.80
2022-10-08T11:45:16.138Z,12.17
2022-10-08T11:47:51.167Z,13.63
2022-10-08T11:50:29.675Z,9.03
2022-10-08T11:53:15.059Z,13.23
2022-10-08T11:55:52.257Z,13.30
2022-10-08T11:58:26.843Z,10.43
2022-10-08T12:01:03.799Z,9.10
2022-10-08T12:03:34.823Z,15.03
2022-10-08T12:06:16.684Z,8.80
2022-10-08T12:08:54.239Z,11.57
2022-10-08T12:11:47.257Z,9.07
2022-10-08T12:14:47.662Z,11.53
2022-10-08T12:17:16.428Z,10.13
2022-10-08T12:20:05.237Z,12.07
2022-10-08T12:22:45.726Z,6.33
2022-10-08T12:25:37.528Z,5.40
2022-10-08T12:28:46.300Z,7.57
2022-10-08T12:31:40.197Z,8.87
2022-10-08T12:34:18.209Z,21.10
2022-10-08T12:37:02.961Z,14.43
2022-10-08T12:39:38.181Z,9.27
2022-10-08T12:42:16.214Z,9.33
2022-10-08T12:45:01.157Z,7.70
2022-10-08T12:47:46.020Z,9.80
2022-10-08T12:50:44.489Z,8.90
2022-10-08T12:53:17.793Z,10.43
2022-10-08T12:55:49.901Z,10.33
2022-10-08T12:58:21.330Z,10.53
2022-10-08T13:00:54.353Z,7.50
2022-10-08T13:03:25.530Z,10.33
2022-10-08T13:05:55.446Z,10.77
2022-10-08T13:08:33.405Z,6.97
2022-10-08T13:11:04.907Z,5.27
2022-10-08T13:13:46.607Z,10.53
2022-10-08T13:16:17.739Z,12.97
2022-10-08T13:18:50.123Z,9.10
2022-10-08T13:21:36.226Z,6.90
2022-10-08T13:24:20.642Z,5.67
2022-10-08T13:26:52.384Z,4.57
2022-10-08T13:29:33.623Z,8.97
2022-10-08T13:32:17.611Z,10.30
2022-10-08T13:34:50.277Z,6.83
2022-10-08T13:37:28.668Z,6.23
2022-10-08T13:39:59.055Z,8.90
2022-10-08T13:42:32.481Z,5.03
2022-10-08T13:45:02.896Z,7.57
2022-10-08T13:47:31.591Z,6.93
2022-10-08T13:50:02.318Z,5.40
2022-10-08T13:52:33.737Z,4.70
2022-10-08T13:55:05.142Z,10.73
2022-10-08T13:57:36.516Z,4.37
2022-10-08T14:00:06.794Z,4.63
2022-10-08T14:02:35.285Z,6.03
2022-10-08T14:05:05.841Z,7.30
2022-10-08T14:07:37.374Z,5.93
2022-10-08T14:10:08.172Z,5.67
2022-10-08T14:12:37.095Z,4.07
2022-10-08T14:15:11.438Z,6.03
2022-10-08T14:17:40.041Z,6.93
2022-10-08T14:20:11.385Z,7.40
2022-10-08T14:22:41.545Z,7.73
2022-10-08T14:25:16.778Z,6.57
2022-10-08T14:27:46.234Z,7.90
2022-10-08T14:30:15.844Z,3.67
2022-10-08T14:32:45.232Z,6.43
2022-10-08T14:35:15.283Z,9.20
2022-10-08T14:37:43.915Z,3.53
2022-10-08T14:40:18.008Z,6.87
2022-10-08T14:42:46.877Z,8.13
2022-10-08T14:45:15.880Z,4.47
2022-10-08T14:47:44.363Z,3.67
2022-10-08T14:50:14.569Z,2.90
2022-10-08T14:52:44.566Z,7.03
2022-10-08T14:55:14.405Z,3.77
2022-10-08T14:57:43.207Z,3.00
2022-10-08T15:00:14.414Z,3.13
2022-10-08T15:02:42.798Z,5.40
2022-10-08T15:05:11.384Z,4.10
2022-10-08T15:07:41.254Z,3.40
2022-10-08T15:10:10.482Z,1.90
2022-10-08T15:12:39.093Z,4.27
2022-10-08T15:15:09.372Z,2.43
2022-10-08T15:17:37.799Z,6.20
2022-10-08T15:20:07.015Z,3.47
2022-10-08T15:22:35.583Z,2.40
2022-10-08T15:25:06.110Z,4.00
2022-10-08T15:27:34.795Z,3.83
2022-10-08T15:30:03.089Z,3.63
2022-10-08T15:32:31.654Z,8.63
2022-10-08T15:35:00.102Z,6.57
2022-10-08T15:37:28.762Z,2.67
2022-10-08T15:39:57.292Z,3.93
2022-10-08T15:42:29.555Z,4.50
2022-10-08T15:44:58.548Z,2.20
2022-10-08T15:47:27.077Z,4.10
2022-10-08T15:49:55.542Z,5.37
2022-10-08T15:52:26.152Z,1.60
2022-10-08T15:54:54.871Z,3.63
2022-10-08T15:57:23.383Z,3.17
2022-10-08T15:59:53.765Z,2.30
2022-10-08T16:02:22.618Z,6.40
2022-10-08T16:04:57.274Z,2.50
2022-10-08T16:07:25.765Z,2.17
2022-10-08T16:09:54.209Z,4.20
2022-10-08T16:12:23.295Z,3.87
2022-10-08T16:14:53.075Z,3.20
2022-10-08T16:17:22.758Z,2.27
2022-10-08T16:19:51.193Z,4.77
2022-10-08T16:22:19.555Z,2.30
2022-10-08T16:24:49.261Z,2.40
2022-10-08T16:27:17.942Z,1.60
2022-10-08T16:29:46.558Z,2.50
2022-10-08T16:32:17.086Z,2.67
2022-10-08T16:34:53.319Z,3.03
2022-10-08T16:37:22.674Z,3.03
2022-10-08T16:39:51.726Z,1.80
2022-10-08T16:42:20.180Z,2.80
2022-10-08T16:44:48.813Z,2.37
2022-10-08T16:47:18.636Z,1.47
2022-10-08T16:49:47.122Z,4.27
2022-10-08T16:52:15.707Z,4.00
2022-10-08T16:54:44.514Z,3.23
2022-10-08T16:57:13.069Z,1.70
2022-10-08T16:59:41.962Z,1.90
2022-10-08T17:02:11.822Z,2.73
2022-10-08T17:04:41.836Z,4.27
2022-10-08T17:07:10.328Z,4.67
2022-10-08T17:09:39.154Z,3.63
2022-10-08T17:12:07.720Z,2.10
2022-10-08T17:14:38.162Z,2.77
2022-10-08T17:17:06.728Z,2.07
2022-10-08T17:19:35.275Z,3.27
2022-10-08T17:22:05.348Z,3.20
2022-10-08T17:24:40.167Z,3.80
2022-10-08T17:27:11.996Z,6.00
2022-10-08T17:29:40.379Z,2.90
2022-10-08T17:32:09.002Z,2.43
2022-10-08T17:34:37.602Z,3.00
2022-10-08T17:37:07.662Z,2.30
2022-10-08T17:39:36.236Z,3.00
2022-10-08T17:42:07.131Z,2.17
2022-10-08T17:44:35.813Z,3.57
2022-10-08T17:47:04.154Z,2.67
2022-10-08T17:49:33.020Z,3.90
2022-10-08T17:52:01.460Z,2.97
2022-10-08T17:54:31.360Z,3.03
2022-10-08T17:57:00.688Z,4.40
2022-10-08T17:59:30.061Z,2.33
2022-10-08T18:01:58.742Z,2.50
2022-10-08T18:04:27.305Z,3.00
2022-10-08T18:07:02.488Z,2.50
2022-10-08T18:09:33.434Z,1.90
2022-10-08T18:12:01.859Z,3.30
2022-10-08T18:14:30.607Z,2.20
2022-10-08T18:16:59.335Z,4.07
2022-10-08T18:19:27.929Z,3.10
2022-10-08T18:21:57.661Z,5.87
2022-10-08T18:24:27.368Z,5.33
2022-10-08T18:26:59.336Z,4.50
2022-10-08T18:29:27.738Z,3.80
2022-10-08T18:31:56.007Z,4.23
2022-10-08T18:34:25.818Z,4.83
2022-10-08T18:36:54.234Z,3.53
2022-10-08T18:39:28.307Z,6.40
2022-10-08T18:41:58.783Z,4.43
2022-10-08T18:44:28.929Z,7.13
2022-10-08T18:46:59.671Z,5.13
2022-10-08T18:49:32.431Z,3.73
2022-10-08T18:52:01.658Z,3.13
2022-10-08T18:54:30.034Z,5.47
2022-10-08T18:57:00.473Z,3.13
2022-10-08T18:59:32.208Z,6.17
2022-10-08T19:02:00.685Z,4.07
2022-10-08T19:04:33.053Z,2.43
2022-10-08T19:07:02.394Z,2.77
2022-10-08T19:09:31.399Z,2.90
2022-10-08T19:12:02.513Z,2.70
2022-10-08T19:14:30.939Z,4.30
2022-10-08T19:17:00.257Z,4.33
2022-10-08T19:19:29.622Z,5.27
2022-10-08T19:22:00.441Z,6.03
2022-10-08T19:24:30.564Z,5.20
2022-10-08T19:27:00.393Z,4.67
2022-10-08T19:29:33.755Z,5.17
2022-10-08T19:32:02.068Z,2.80
2022-10-08T19:34:30.444Z,5.27
2022-10-08T19:36:58.793Z,4.57
2022-10-08T19:39:30.325Z,5.57
2022-10-08T19:42:00.147Z,6.83
2022-10-08T19:44:28.681Z,6.43
2022-10-08T19:46:57.055Z,3.07
2022-10-08T19:49:25.498Z,6.83
2022-10-08T19:51:54.579Z,9.67
2022-10-08T19:54:22.951Z,6.83
2022-10-08T19:56:51.304Z,14.57
2022-10-08T19:59:21.821Z,15.30
2022-10-08T20:01:50.077Z,11.87
2022-10-08T20:04:18.599Z,10.80
2022-10-08T20:06:48.481Z,10.33
2022-10-08T20:09:17.124Z,8.67
2022-10-08T20:11:47.355Z,7.97
2022-10-08T20:14:16.969Z,12.27
2022-10-08T20:16:49.026Z,9.90
2022-10-08T20:19:19.442Z,17.50
2022-10-08T20:21:51.768Z,17.67
2022-10-08T20:24:20.855Z,9.33
2022-10-08T20:26:52.238Z,7.00
2022-10-08T20:29:28.681Z,11.20
2022-10-08T20:32:00.914Z,12.37
2022-10-08T20:34:31.350Z,18.43
2022-10-08T20:37:02.557Z,21.13
2022-10-08T20:39:31.321Z,7.17
2022-10-08T20:42:00.728Z,10.87
2022-10-08T20:44:29.068Z,6.30
2022-10-08T20:46:57.855Z,9.03
2022-10-08T20:49:30.697Z,10.80
2022-10-08T20:51:59.110Z,7.67
2022-10-08T20:54:27.887Z,8.20
2022-10-08T20:56:56.305Z,8.33
2022-10-08T20:59:24.827Z,7.40
2022-10-08T21:01:55.959Z,13.80
2022-10-08T21:04:24.493Z,6.70
2022-10-08T21:06:58.258Z,4.17
2022-10-08T21:09:30.398Z,9.73
2022-10-08T21:12:04.922Z,5.90
2022-10-08T21:14:34.638Z,8.83
2022-10-08T21:17:02.924Z,4.63
2022-10-08T21:19:31.340Z,21.67
2022-10-08T21:22:04.444Z,13.10
2022-10-08T21:24:33.573Z,7.00
2022-10-08T21:27:01.920Z,9.07
2022-10-08T21:29:30.270Z,12.20
2022-10-08T21:31:58.850Z,7.50
2022-10-08T21:34:27.323Z,3.67
2022-10-08T21:36:56.015Z,4.03
2022-10-08T21:39:26.257Z,8.17
2022-10-08T21:41:55.099Z,7.37
2022-10-08T21:44:23.585Z,5.37
2022-10-08T21:46:51.880Z,4.57
2022-10-08T21:49:21.673Z,7.20
2022-10-08T21:51:50.565Z,8.53
2022-10-08T21:54:21.707Z,8.50
2022-10-08T21:57:00.040Z,9.13
2022-10-08T21:59:28.654Z,9.10
2022-10-08T22:01:58.755Z,15.10
2022-10-08T22:04:27.954Z,11.10
2022-10-08T22:06:59.670Z,11.40
2022-10-08T22:09:31.078Z,42.23
2022-10-08T22:12:01.998Z,37.50
2022-10-08T22:14:30.591Z,16.40
2022-10-08T22:16:59.233Z,9.00
2022-10-08T22:19:27.695Z,7.20
2022-10-08T22:21:56.151Z,6.27
2022-10-08T22:24:24.533Z,6.93
2022-10-08T22:26:53.331Z,5.33
2022-10-08T22:29:23.196Z,4.03
2022-10-08T22:31:54.512Z,5.70
2022-10-08T22:34:23.003Z,17.07
2022-10-08T22:36:51.476Z,18.43
2022-10-08T22:39:20.094Z,11.67
2022-10-08T22:41:49.667Z,9.50
2022-10-08T22:44:19.571Z,9.23
2022-10-08T22:46:49.808Z,6.37
2022-10-08T22:49:19.007Z,14.33
